createdAt,value
2018-07-22T00:00:59.137Z,8.10
2018-07-22T00:01:59.335Z,8.50
2018-07-22T00:02:59.531Z,7.90
2018-07-22T00:03:59.749Z,8.60
2018-07-22T00:04:59.971Z,8.70
2018-07-22T00:06:00.174Z,8.20
2018-07-22T00:07:00.386Z,8.70
2018-07-22T00:08:00.586Z,8.70
2018-07-22T00:09:00.790Z,8.50
2018-07-22T00:10:01.004Z,8.70
2018-07-22T00:11:01.189Z,8.80
2018-07-22T00:12:01.398Z,8.80
2018-07-22T00:13:01.588Z,8.90
2018-07-22T00:14:01.833Z,9.90
2018-07-22T00:15:02.010Z,8.80
2018-07-22T00:16:02.222Z,8.40
2018-07-22T00:17:02.451Z,9.20
2018-07-22T00:18:02.663Z,9.00
2018-07-22T00:19:02.874Z,9.10
2018-07-22T00:20:03.077Z,9.50
2018-07-22T00:21:03.284Z,9.60
2018-07-22T00:22:03.500Z,9.30
2018-07-22T00:23:03.693Z,10.20
2018-07-22T00:24:03.889Z,10.00
2018-07-22T00:25:04.095Z,9.50
2018-07-22T00:26:04.309Z,9.50
2018-07-22T00:27:04.520Z,10.10
2018-07-22T00:28:04.736Z,9.50
2018-07-22T00:29:04.989Z,9.60
2018-07-22T00:30:05.123Z,9.60
2018-07-22T00:31:05.425Z,9.60
2018-07-22T00:32:05.506Z,9.70
2018-07-22T00:33:05.700Z,9.60
2018-07-22T00:34:05.907Z,10.10
2018-07-22T00:35:06.122Z,9.90
2018-07-22T00:36:06.322Z,9.50
2018-07-22T00:37:06.532Z,10.20
2018-07-22T00:38:06.724Z,10.60
2018-07-22T00:39:06.912Z,10.90
2018-07-22T00:41:39.064Z,11.60
2018-07-22T00:42:39.248Z,11.60
2018-07-22T00:43:39.463Z,11.40
2018-07-22T00:44:39.680Z,11.90
2018-07-22T00:45:39.867Z,11.50
2018-07-22T00:46:40.074Z,11.90
2018-07-22T00:47:40.287Z,11.80
2018-07-22T00:48:40.503Z,11.40
2018-07-22T00:49:40.715Z,12.10
2018-07-22T00:50:40.914Z,12.10
2018-07-22T00:51:41.136Z,10.60
2018-07-22T00:52:41.332Z,11.90
2018-07-22T00:53:41.546Z,12.00
2018-07-22T00:54:41.768Z,11.20
2018-07-22T00:55:41.980Z,11.50
2018-07-22T00:56:42.197Z,12.20
2018-07-22T00:57:42.397Z,12.10
2018-07-22T00:58:42.587Z,12.30
2018-07-22T00:59:42.783Z,12.50
2018-07-22T01:02:15.025Z,11.90
2018-07-22T01:03:15.079Z,12.10
2018-07-22T01:04:15.277Z,11.80
2018-07-22T01:05:15.476Z,11.90
2018-07-22T01:06:15.674Z,11.90
2018-07-22T01:07:15.878Z,12.50
2018-07-22T01:08:16.084Z,12.20
2018-07-22T01:09:16.274Z,12.40
2018-07-22T01:10:16.485Z,12.10
2018-07-22T01:11:16.684Z,11.60
2018-07-22T01:12:16.893Z,11.60
2018-07-22T01:13:17.114Z,11.70
2018-07-22T01:14:17.318Z,11.40
2018-07-22T01:15:17.522Z,11.70
2018-07-22T01:16:17.710Z,12.00
2018-07-22T01:17:17.919Z,11.80
2018-07-22T01:18:18.132Z,10.90
2018-07-22T01:19:18.320Z,11.00
2018-07-22T01:20:18.546Z,11.60
2018-07-22T01:21:18.755Z,12.10
2018-07-22T01:22:18.967Z,11.80
2018-07-22T01:23:19.221Z,11.60
2018-07-22T01:24:19.436Z,10.80
2018-07-22T01:25:19.647Z,11.70
2018-07-22T01:26:19.864Z,11.10
2018-07-22T01:27:20.073Z,11.10
2018-07-22T01:28:20.274Z,11.00
2018-07-22T01:29:20.472Z,10.10
2018-07-22T01:30:20.664Z,10.50
2018-07-22T01:31:20.937Z,10.70
2018-07-22T01:32:21.012Z,10.00
2018-07-22T01:33:21.215Z,10.70
2018-07-22T01:34:21.426Z,10.50
2018-07-22T01:35:21.620Z,11.10
2018-07-22T01:36:21.806Z,11.20
2018-07-22T01:37:22.009Z,10.80
2018-07-22T01:38:22.205Z,11.00
2018-07-22T01:39:22.393Z,10.20
2018-07-22T01:40:22.617Z,10.20
2018-07-22T01:41:22.813Z,11.60
2018-07-22T01:42:23.024Z,10.40
2018-07-22T01:43:23.240Z,10.60
2018-07-22T01:44:23.428Z,10.30
2018-07-22T01:45:23.613Z,9.80
2018-07-22T01:46:23.830Z,10.30
2018-07-22T01:47:24.033Z,10.00
2018-07-22T01:48:24.249Z,10.20
2018-07-22T01:49:24.447Z,9.80
2018-07-22T01:50:24.633Z,9.80
2018-07-22T01:51:24.821Z,9.60
2018-07-22T01:52:25.030Z,9.50
2018-07-22T01:53:25.225Z,9.90
2018-07-22T01:54:25.437Z,10.00
2018-07-22T01:55:25.623Z,9.60
2018-07-22T01:57:57.449Z,9.50
2018-07-22T01:58:57.623Z,9.90
2018-07-22T01:59:57.844Z,9.00
2018-07-22T02:00:58.045Z,9.90
2018-07-22T02:01:58.236Z,9.10
2018-07-22T02:02:58.438Z,9.80
2018-07-22T02:03:58.654Z,10.30
2018-07-22T02:04:58.854Z,9.90
2018-07-22T02:05:59.057Z,9.30
2018-07-22T02:06:59.247Z,9.80
2018-07-22T02:07:59.453Z,9.50
2018-07-22T02:08:59.663Z,10.00
2018-07-22T02:09:59.875Z,9.60
2018-07-22T02:11:00.082Z,10.10
2018-07-22T02:12:00.282Z,9.50
2018-07-22T02:13:00.488Z,9.60
2018-07-22T02:14:00.704Z,9.80
2018-07-22T02:15:00.914Z,9.30
2018-07-22T02:16:01.113Z,9.80
2018-07-22T02:17:01.334Z,9.70
2018-07-22T02:18:01.544Z,9.20
2018-07-22T02:19:01.743Z,10.00
2018-07-22T02:20:01.959Z,9.60
2018-07-22T02:21:02.162Z,9.70
2018-07-22T02:22:02.397Z,10.20
2018-07-22T02:23:02.598Z,9.80
2018-07-22T02:24:02.800Z,10.90
2018-07-22T02:25:03.014Z,10.80
2018-07-22T02:26:03.233Z,9.90
2018-07-22T02:27:03.425Z,10.10
2018-07-22T02:28:03.618Z,10.70
2018-07-22T02:29:03.825Z,10.50
2018-07-22T02:30:04.017Z,10.60
2018-07-22T02:31:04.236Z,10.40
2018-07-22T02:32:04.423Z,10.10
2018-07-22T02:33:04.609Z,10.30
2018-07-22T02:34:04.793Z,10.20
2018-07-22T02:35:05.000Z,10.60
2018-07-22T02:36:05.206Z,10.50
2018-07-22T02:37:05.415Z,10.50
2018-07-22T02:38:05.627Z,9.50
2018-07-22T02:39:05.822Z,10.30
2018-07-22T02:40:06.021Z,10.40
2018-07-22T02:41:06.231Z,10.30
2018-07-22T02:43:38.096Z,9.80
2018-07-22T02:44:38.270Z,9.90
2018-07-22T02:45:38.488Z,10.50
2018-07-22T02:46:38.670Z,10.30
2018-07-22T02:47:38.883Z,10.10
2018-07-22T02:48:39.084Z,9.90
2018-07-22T02:49:39.278Z,10.50
2018-07-22T02:50:39.468Z,10.50
2018-07-22T02:51:39.673Z,10.10
2018-07-22T02:52:39.880Z,10.20
2018-07-22T02:53:40.094Z,9.70
2018-07-22T02:54:40.284Z,10.00
2018-07-22T02:55:40.471Z,9.10
2018-07-22T02:56:40.673Z,10.70
2018-07-22T02:57:40.882Z,9.90
2018-07-22T02:58:41.095Z,10.60
2018-07-22T02:59:41.317Z,10.10
2018-07-22T03:00:41.504Z,10.70
2018-07-22T03:01:41.712Z,10.20
2018-07-22T03:02:41.903Z,10.10
2018-07-22T03:03:42.119Z,9.70
2018-07-22T03:04:42.331Z,10.30
2018-07-22T03:05:42.539Z,10.10
2018-07-22T03:06:42.725Z,9.80
2018-07-22T03:07:42.924Z,9.60
2018-07-22T03:08:43.131Z,9.80
2018-07-22T03:11:15.296Z,9.50
2018-07-22T03:12:15.473Z,9.60
2018-07-22T03:13:15.685Z,9.60
2018-07-22T03:14:15.901Z,9.50
2018-07-22T03:15:16.092Z,10.10
2018-07-22T03:16:16.303Z,10.20
2018-07-22T03:17:16.489Z,10.00
2018-07-22T03:18:16.683Z,9.90
2018-07-22T03:19:16.909Z,10.20
2018-07-22T03:20:17.117Z,9.20
2018-07-22T03:21:17.330Z,10.00
2018-07-22T03:22:17.542Z,10.10
2018-07-22T03:23:17.752Z,10.00
2018-07-22T03:24:17.952Z,10.30
2018-07-22T03:25:18.152Z,10.50
2018-07-22T03:26:18.343Z,10.10
2018-07-22T03:28:50.558Z,9.90
2018-07-22T03:29:50.734Z,10.00
2018-07-22T03:30:50.935Z,10.40
2018-07-22T03:31:51.131Z,10.40
2018-07-22T03:32:51.409Z,11.00
2018-07-22T03:33:51.483Z,10.30
2018-07-22T03:34:51.680Z,10.60
2018-07-22T03:35:51.855Z,11.00
2018-07-22T03:36:52.055Z,10.10
2018-07-22T03:37:52.260Z,10.90
2018-07-22T03:38:52.452Z,10.20
2018-07-22T03:41:24.323Z,10.90
2018-07-22T03:42:24.500Z,11.30
2018-07-22T03:43:24.699Z,11.30
2018-07-22T03:44:24.964Z,10.90
2018-07-22T03:45:25.045Z,10.90
2018-07-22T03:46:25.243Z,10.30
2018-07-22T03:47:25.455Z,11.40
2018-07-22T03:48:25.641Z,10.90
2018-07-22T03:49:25.833Z,11.40
2018-07-22T03:50:26.024Z,10.40
2018-07-22T03:51:26.228Z,10.80
2018-07-22T03:52:26.433Z,10.60
2018-07-22T03:53:26.648Z,11.30
2018-07-22T03:54:26.858Z,10.60
2018-07-22T03:55:27.102Z,10.40
2018-07-22T03:56:27.303Z,11.90
2018-07-22T03:57:27.509Z,12.20
2018-07-22T03:58:27.707Z,10.60
2018-07-22T03:59:27.900Z,10.90
2018-07-22T04:00:28.092Z,11.00
2018-07-22T04:01:28.280Z,10.50
2018-07-22T04:02:28.494Z,10.70
2018-07-22T04:03:28.679Z,10.80
2018-07-22T04:04:28.885Z,10.80
2018-07-22T04:05:29.077Z,10.20
2018-07-22T04:06:29.294Z,10.80
2018-07-22T04:07:29.506Z,10.20
2018-07-22T04:08:29.694Z,10.40
2018-07-22T04:09:29.920Z,10.70
2018-07-22T04:10:30.127Z,10.20
2018-07-22T04:11:30.312Z,10.60
2018-07-22T04:12:30.513Z,11.40
2018-07-22T04:13:30.705Z,11.10
2018-07-22T04:14:30.902Z,11.10
2018-07-22T04:15:31.090Z,10.60
2018-07-22T04:16:31.294Z,11.30
2018-07-22T04:17:31.497Z,10.60
2018-07-22T04:18:31.717Z,12.10
2018-07-22T04:19:31.924Z,11.00
2018-07-22T04:20:32.137Z,11.50
2018-07-22T04:21:32.402Z,11.10
2018-07-22T04:22:32.524Z,11.40
2018-07-22T04:25:04.680Z,10.90
2018-07-22T04:26:04.854Z,11.50
2018-07-22T04:27:05.067Z,11.60
2018-07-22T04:28:05.276Z,11.10
2018-07-22T04:29:05.489Z,11.10
2018-07-22T04:30:05.691Z,11.70
2018-07-22T04:31:05.881Z,12.00
2018-07-22T04:32:06.082Z,11.40
2018-07-22T04:33:06.293Z,12.20
2018-07-22T04:34:06.497Z,11.40
2018-07-22T04:35:06.708Z,11.60
2018-07-22T04:36:06.894Z,11.70
2018-07-22T04:37:07.093Z,11.40
2018-07-22T04:38:07.400Z,11.90
2018-07-22T04:39:07.475Z,11.30
2018-07-22T04:40:07.684Z,11.70
2018-07-22T04:41:07.901Z,11.40
2018-07-22T04:42:08.084Z,11.50
2018-07-22T04:43:08.298Z,12.40
2018-07-22T04:44:08.507Z,11.60
2018-07-22T04:45:08.707Z,11.80
2018-07-22T04:46:08.914Z,11.80
2018-07-22T04:47:09.102Z,11.70
2018-07-22T04:48:09.311Z,12.30
2018-07-22T04:49:09.529Z,11.90
2018-07-22T04:51:41.842Z,11.50
2018-07-22T04:52:42.016Z,12.10
2018-07-22T04:53:42.218Z,11.80
2018-07-22T04:54:42.421Z,11.70
2018-07-22T04:55:42.612Z,11.20
2018-07-22T04:56:42.811Z,11.60
2018-07-22T04:57:43.023Z,12.50
2018-07-22T05:00:15.200Z,12.50
2018-07-22T05:01:15.384Z,12.70
2018-07-22T05:02:15.598Z,12.20
2018-07-22T05:03:15.808Z,12.90
2018-07-22T05:04:16.000Z,12.60
2018-07-22T05:06:48.197Z,13.90
2018-07-22T05:07:48.375Z,14.00
2018-07-22T05:08:48.586Z,14.30
2018-07-22T05:09:48.794Z,14.00
2018-07-22T05:10:48.978Z,14.80
2018-07-22T05:11:49.175Z,15.10
2018-07-22T05:12:49.383Z,15.30
2018-07-22T05:13:49.584Z,14.80
2018-07-22T05:14:49.768Z,15.00
2018-07-22T05:15:49.971Z,16.00
2018-07-22T05:16:50.168Z,15.80
2018-07-22T05:17:50.361Z,16.00
2018-07-22T05:18:50.553Z,15.60
2018-07-22T05:19:50.761Z,15.80
2018-07-22T05:20:50.973Z,15.40
2018-07-22T05:21:51.174Z,15.00
2018-07-22T05:22:51.380Z,15.50
2018-07-22T05:23:51.585Z,14.60
2018-07-22T05:24:51.795Z,15.10
2018-07-22T05:25:51.984Z,15.40
2018-07-22T05:26:52.203Z,15.30
2018-07-22T05:27:52.403Z,15.40
2018-07-22T05:28:52.616Z,15.90
2018-07-22T05:29:52.858Z,15.30
2018-07-22T05:30:53.058Z,15.40
2018-07-22T05:31:53.248Z,16.60
2018-07-22T05:32:53.441Z,14.90
2018-07-22T05:33:53.638Z,14.40
2018-07-22T05:34:53.827Z,14.40
2018-07-22T05:35:54.014Z,14.50
2018-07-22T05:36:54.218Z,13.00
2018-07-22T05:37:54.406Z,13.60
2018-07-22T05:38:54.608Z,13.70
2018-07-22T05:39:54.834Z,13.70
2018-07-22T05:40:55.030Z,14.20
2018-07-22T05:41:55.238Z,14.10
2018-07-22T05:42:55.427Z,13.80
2018-07-22T05:43:55.633Z,12.80
2018-07-22T05:44:55.840Z,13.40
2018-07-22T05:45:56.045Z,13.00
2018-07-22T05:46:56.250Z,13.30
2018-07-22T05:47:56.436Z,12.90
2018-07-22T05:48:56.644Z,13.00
2018-07-22T05:49:56.848Z,13.80
2018-07-22T05:50:57.045Z,13.30
2018-07-22T05:51:57.315Z,14.30
2018-07-22T05:52:57.384Z,15.20
2018-07-22T05:53:57.623Z,15.20
2018-07-22T05:54:57.772Z,14.80
2018-07-22T05:55:57.965Z,15.20
2018-07-22T05:56:58.166Z,14.80
2018-07-22T05:57:58.391Z,15.10
2018-07-22T05:58:58.597Z,15.20
2018-07-22T05:59:58.802Z,15.40
2018-07-22T06:00:59.014Z,14.50
2018-07-22T06:01:59.210Z,16.10
2018-07-22T06:02:59.489Z,15.20
2018-07-22T06:03:59.577Z,14.90
2018-07-22T06:04:59.764Z,16.60
2018-07-22T06:05:59.973Z,15.80
2018-07-22T06:08:31.793Z,16.10
2018-07-22T06:09:31.973Z,15.60
2018-07-22T06:10:32.180Z,15.40
2018-07-22T06:11:32.373Z,15.30
2018-07-22T06:12:32.567Z,16.30
2018-07-22T06:13:32.776Z,15.80
2018-07-22T06:14:33.070Z,15.50
2018-07-22T06:15:33.136Z,15.30
2018-07-22T06:16:33.360Z,15.40
2018-07-22T06:17:33.566Z,15.40
2018-07-22T06:18:33.747Z,15.80
2018-07-22T06:19:33.937Z,15.60
2018-07-22T06:20:34.154Z,16.20
2018-07-22T06:21:34.357Z,15.90
2018-07-22T06:22:34.551Z,16.40
2018-07-22T06:25:06.698Z,16.00
2018-07-22T06:26:06.876Z,15.90
2018-07-22T06:27:07.075Z,16.80
2018-07-22T06:28:07.292Z,16.50
2018-07-22T06:29:07.488Z,16.00
2018-07-22T06:30:07.689Z,15.30
2018-07-22T06:31:07.900Z,15.70
2018-07-22T06:32:08.093Z,15.50
2018-07-22T06:33:08.284Z,15.60
2018-07-22T06:34:08.478Z,15.20
2018-07-22T06:35:08.704Z,14.10
2018-07-22T06:36:08.897Z,14.40
2018-07-22T06:37:09.090Z,14.60
2018-07-22T06:38:09.299Z,14.10
2018-07-22T06:39:09.530Z,13.50
2018-07-22T06:40:09.747Z,13.70
2018-07-22T06:41:09.971Z,13.50
2018-07-22T06:42:10.140Z,13.00
2018-07-22T06:43:10.342Z,13.90
2018-07-22T06:44:10.533Z,12.60
2018-07-22T06:45:10.756Z,12.50
2018-07-22T06:46:10.981Z,13.30
2018-07-22T06:47:11.174Z,13.40
2018-07-22T06:48:11.389Z,12.90
2018-07-22T06:49:11.574Z,13.40
2018-07-22T06:50:11.807Z,14.40
2018-07-22T06:51:11.993Z,12.90
2018-07-22T06:52:12.195Z,12.80
2018-07-22T06:53:12.390Z,13.10
2018-07-22T06:54:12.634Z,12.50
2018-07-22T06:55:12.780Z,12.70
2018-07-22T06:56:12.980Z,12.90
2018-07-22T06:57:13.237Z,12.40
2018-07-22T06:58:13.396Z,12.60
2018-07-22T06:59:13.591Z,12.80
2018-07-22T07:00:13.784Z,12.50
2018-07-22T07:01:13.986Z,12.70
2018-07-22T07:02:14.201Z,12.50
2018-07-22T07:03:14.418Z,12.50
2018-07-22T07:04:14.606Z,12.90
2018-07-22T07:05:14.860Z,11.60
2018-07-22T07:06:15.002Z,11.90
2018-07-22T07:07:15.209Z,12.30
2018-07-22T07:08:15.517Z,12.40
2018-07-22T07:09:15.587Z,12.50
2018-07-22T07:10:15.778Z,11.60
2018-07-22T07:11:15.970Z,12.60
2018-07-22T07:12:16.192Z,11.40
2018-07-22T07:13:16.378Z,11.70
2018-07-22T07:14:16.599Z,12.60
2018-07-22T07:15:16.785Z,13.00
2018-07-22T07:16:16.982Z,12.00
2018-07-22T07:17:17.182Z,11.10
2018-07-22T07:18:17.402Z,12.60
2018-07-22T07:19:17.622Z,11.90
2018-07-22T07:20:17.821Z,12.30
2018-07-22T07:21:18.042Z,12.80
2018-07-22T07:22:18.253Z,12.40
2018-07-22T07:23:18.445Z,12.40
2018-07-22T07:24:18.660Z,12.40
2018-07-22T07:25:18.868Z,12.50
2018-07-22T07:26:19.088Z,12.60
2018-07-22T07:27:19.274Z,12.80
2018-07-22T07:28:19.488Z,12.20
2018-07-22T07:29:19.705Z,12.10
2018-07-22T07:30:19.896Z,12.30
2018-07-22T07:31:20.092Z,12.30
2018-07-22T07:32:20.280Z,12.30
2018-07-22T07:33:20.472Z,13.00
2018-07-22T07:34:20.707Z,12.10
2018-07-22T07:35:20.908Z,12.70
2018-07-22T07:36:21.121Z,12.90
2018-07-22T07:37:21.314Z,12.20
2018-07-22T07:38:21.507Z,12.10
2018-07-22T07:39:21.699Z,12.20
2018-07-22T07:40:21.902Z,12.60
2018-07-22T07:41:22.109Z,11.90
2018-07-22T07:42:22.348Z,11.90
2018-07-22T07:43:22.524Z,11.40
2018-07-22T07:44:22.721Z,11.60
2018-07-22T07:45:22.912Z,12.30
2018-07-22T07:46:23.142Z,12.50
2018-07-22T07:47:23.357Z,11.40
2018-07-22T07:48:23.550Z,12.10
2018-07-22T07:49:23.763Z,12.00
2018-07-22T07:50:23.962Z,12.60
2018-07-22T07:51:24.174Z,12.60
2018-07-22T07:52:24.400Z,12.10
2018-07-22T07:53:24.651Z,12.20
2018-07-22T07:54:24.831Z,12.40
2018-07-22T07:55:25.023Z,12.40
2018-07-22T07:56:25.236Z,12.10
2018-07-22T07:57:25.450Z,12.40
2018-07-22T07:58:25.667Z,12.80
2018-07-22T07:59:25.877Z,12.90
2018-07-22T08:00:26.065Z,12.60
2018-07-22T08:01:26.289Z,12.90
2018-07-22T08:02:26.497Z,12.40
2018-07-22T08:03:26.691Z,11.70
2018-07-22T08:04:26.901Z,12.30
2018-07-22T08:05:27.137Z,12.40
2018-07-22T08:06:27.313Z,11.50
2018-07-22T08:07:27.560Z,11.20
2018-07-22T08:08:27.765Z,12.10
2018-07-22T08:09:27.974Z,11.00
2018-07-22T08:10:28.186Z,11.70
2018-07-22T08:11:28.404Z,11.90
2018-07-22T08:12:28.617Z,11.20
2018-07-22T08:13:28.829Z,11.90
2018-07-22T08:14:29.042Z,11.60
2018-07-22T08:15:29.263Z,11.70
2018-07-22T08:16:29.485Z,12.30
2018-07-22T08:17:29.688Z,11.90
2018-07-22T08:18:29.883Z,12.30
2018-07-22T08:19:30.098Z,11.90
2018-07-22T08:20:30.290Z,11.50
2018-07-22T08:21:30.566Z,11.70
2018-07-22T08:22:30.729Z,11.60
2018-07-22T08:23:30.953Z,10.20
2018-07-22T08:24:31.160Z,10.60
2018-07-22T08:25:31.346Z,10.50
2018-07-22T08:26:31.596Z,10.80
2018-07-22T08:27:31.667Z,10.80
2018-07-22T08:28:31.870Z,10.50
2018-07-22T08:29:32.093Z,10.10
2018-07-22T08:30:32.371Z,10.70
2018-07-22T08:31:32.495Z,10.40
2018-07-22T08:32:32.716Z,9.90
2018-07-22T08:33:33.005Z,10.60
2018-07-22T08:34:33.088Z,10.70
2018-07-22T08:35:33.285Z,10.50
2018-07-22T08:36:33.477Z,10.40
2018-07-22T08:37:33.670Z,10.40
2018-07-22T08:38:33.879Z,10.60
2018-07-22T08:39:34.069Z,10.60
2018-07-22T08:40:34.273Z,10.30
2018-07-22T08:41:34.527Z,10.40
2018-07-22T08:42:34.653Z,9.80
2018-07-22T08:43:34.864Z,10.30
2018-07-22T08:44:35.089Z,10.30
2018-07-22T08:45:35.317Z,10.30
2018-07-22T08:46:35.520Z,10.00
2018-07-22T08:47:35.765Z,10.00
2018-07-22T08:48:35.954Z,10.80
2018-07-22T08:49:36.163Z,11.50
2018-07-22T08:50:36.378Z,10.90
2018-07-22T08:51:36.569Z,11.30
2018-07-22T08:52:36.773Z,10.50
2018-07-22T08:53:36.994Z,11.30
2018-07-22T08:54:37.211Z,11.70
2018-07-22T08:55:37.406Z,11.60
2018-07-22T08:56:37.625Z,10.50
2018-07-22T08:57:37.831Z,10.90
2018-07-22T08:58:38.052Z,11.30
2018-07-22T08:59:38.262Z,11.20
2018-07-22T09:00:38.480Z,11.40
2018-07-22T09:01:38.686Z,11.30
2018-07-22T09:02:38.900Z,12.00
2018-07-22T09:03:39.095Z,12.00
2018-07-22T09:04:39.302Z,12.10
2018-07-22T09:05:39.531Z,12.10
2018-07-22T09:06:39.743Z,12.30
2018-07-22T09:07:39.943Z,12.50
2018-07-22T09:08:40.152Z,12.00
2018-07-22T09:09:40.364Z,12.10
2018-07-22T09:10:40.577Z,12.10
2018-07-22T09:11:40.779Z,11.90
2018-07-22T09:12:40.969Z,12.10
2018-07-22T09:13:41.186Z,12.20
2018-07-22T09:14:41.388Z,11.50
2018-07-22T09:15:41.608Z,12.50
2018-07-22T09:16:41.810Z,12.10
2018-07-22T09:17:42.031Z,11.60
2018-07-22T09:18:42.226Z,12.70
2018-07-22T09:19:42.439Z,11.40
2018-07-22T09:20:42.628Z,12.30
2018-07-22T09:21:42.819Z,11.60
2018-07-22T09:22:43.004Z,12.30
2018-07-22T09:23:43.221Z,11.40
2018-07-22T09:24:43.428Z,11.80
2018-07-22T09:25:43.645Z,11.60
2018-07-22T09:26:43.837Z,10.70
2018-07-22T09:27:44.044Z,11.70
2018-07-22T09:28:44.247Z,11.80
2018-07-22T09:29:44.451Z,12.10
2018-07-22T09:30:44.646Z,12.20
2018-07-22T09:31:44.841Z,11.80
2018-07-22T09:32:45.055Z,12.00
2018-07-22T09:35:17.257Z,12.20
2018-07-22T09:36:17.632Z,12.00
2018-07-22T09:37:17.641Z,11.50
2018-07-22T09:38:17.849Z,12.50
2018-07-22T09:39:18.074Z,11.60
2018-07-22T09:40:18.284Z,12.20
2018-07-22T09:41:18.490Z,12.10
2018-07-22T09:42:18.703Z,12.10
2018-07-22T09:43:18.923Z,10.90
2018-07-22T09:44:19.143Z,11.20
2018-07-22T09:45:19.341Z,11.00
2018-07-22T09:47:51.488Z,11.70
2018-07-22T09:48:51.667Z,11.30
2018-07-22T09:49:51.876Z,10.90
2018-07-22T09:50:52.073Z,11.20
2018-07-22T09:51:52.283Z,11.20
2018-07-22T09:52:52.484Z,10.40
2018-07-22T09:53:52.680Z,11.00
2018-07-22T09:54:52.874Z,10.30
2018-07-22T09:55:53.076Z,10.40
2018-07-22T09:56:53.280Z,10.30
2018-07-22T09:57:53.505Z,10.00
2018-07-22T09:58:53.695Z,10.40
2018-07-22T09:59:53.896Z,10.00
2018-07-22T10:00:54.088Z,10.60
2018-07-22T10:01:54.297Z,10.80
2018-07-22T10:02:54.513Z,10.50
2018-07-22T10:03:54.726Z,10.50
2018-07-22T10:04:54.999Z,10.90
2018-07-22T10:05:55.156Z,10.10
2018-07-22T10:06:55.360Z,10.70
2018-07-22T10:07:55.562Z,10.30
2018-07-22T10:08:55.754Z,10.00
2018-07-22T10:09:55.947Z,10.60
2018-07-22T10:10:56.162Z,10.50
2018-07-22T10:11:56.360Z,10.60
2018-07-22T10:12:56.582Z,9.80
2018-07-22T10:15:28.740Z,10.10
2018-07-22T10:16:28.912Z,10.40
2018-07-22T10:17:29.151Z,10.00
2018-07-22T10:18:29.358Z,9.40
2018-07-22T10:19:29.570Z,8.90
2018-07-22T10:20:29.774Z,9.90
2018-07-22T10:21:29.975Z,9.20
2018-07-22T10:22:30.182Z,9.00
2018-07-22T10:23:30.464Z,8.60
2018-07-22T10:24:30.583Z,8.20
2018-07-22T10:25:30.799Z,9.20
2018-07-22T10:26:30.995Z,9.60
2018-07-22T10:27:31.212Z,9.80
2018-07-22T10:28:31.435Z,10.00
2018-07-22T10:29:31.634Z,10.20
2018-07-22T10:30:31.838Z,9.40
2018-07-22T10:31:32.039Z,9.80
2018-07-22T10:32:32.237Z,8.80
2018-07-22T10:33:32.453Z,9.10
2018-07-22T10:34:32.689Z,8.60
2018-07-22T10:35:32.892Z,8.60
2018-07-22T10:36:33.108Z,8.70
2018-07-22T10:37:33.329Z,8.70
2018-07-22T10:38:33.544Z,8.20
2018-07-22T10:39:33.745Z,8.40
2018-07-22T10:40:33.966Z,8.70
2018-07-22T10:41:34.176Z,8.20
2018-07-22T10:42:34.402Z,8.70
2018-07-22T10:43:34.598Z,8.50
2018-07-22T10:44:34.796Z,9.20
2018-07-22T10:45:34.983Z,9.00
2018-07-22T10:46:35.204Z,8.40
2018-07-22T10:47:35.415Z,8.60
2018-07-22T10:50:07.637Z,8.70
2018-07-22T10:51:07.826Z,8.30
2018-07-22T10:52:08.040Z,8.20
2018-07-22T10:53:08.240Z,8.20
2018-07-22T10:54:08.447Z,8.60
2018-07-22T10:55:08.675Z,8.90
2018-07-22T10:56:08.875Z,8.60
2018-07-22T10:57:09.093Z,7.70
2018-07-22T10:58:09.317Z,7.60
2018-07-22T10:59:09.523Z,8.20
2018-07-22T11:00:09.758Z,7.70
2018-07-22T11:01:09.981Z,7.10
2018-07-22T11:02:10.216Z,7.50
2018-07-22T11:03:10.452Z,7.20
2018-07-22T11:04:10.644Z,7.70
2018-07-22T11:06:42.481Z,7.90
2018-07-22T11:07:42.664Z,8.00
2018-07-22T11:08:42.846Z,7.90
2018-07-22T11:09:43.041Z,7.60
2018-07-22T11:10:43.246Z,7.60
2018-07-22T11:11:43.446Z,7.50
2018-07-22T11:12:43.662Z,8.00
2018-07-22T11:13:43.897Z,7.10
2018-07-22T11:14:44.193Z,7.50
2018-07-22T11:15:44.311Z,7.60
2018-07-22T11:16:44.514Z,7.10
2018-07-22T11:17:44.721Z,6.70
2018-07-22T11:20:16.936Z,7.30
2018-07-22T11:21:17.007Z,7.70
2018-07-22T11:22:17.207Z,7.10
2018-07-22T11:23:17.405Z,7.50
2018-07-22T11:24:17.624Z,6.90
2018-07-22T11:25:17.818Z,7.40
2018-07-22T11:26:18.021Z,7.30
2018-07-22T11:27:18.237Z,6.50
2018-07-22T11:28:18.428Z,6.90
2018-07-22T11:29:18.627Z,7.20
2018-07-22T11:30:18.825Z,7.70
2018-07-22T11:31:19.027Z,7.90
2018-07-22T11:32:19.245Z,7.20
2018-07-22T11:33:19.476Z,6.90
2018-07-22T11:34:19.677Z,7.60
2018-07-22T11:35:19.873Z,7.10
2018-07-22T11:36:20.106Z,6.80
2018-07-22T11:37:20.322Z,7.20
2018-07-22T11:38:20.535Z,6.90
2018-07-22T11:39:20.737Z,6.60
2018-07-22T11:40:20.962Z,7.10
2018-07-22T11:42:52.799Z,7.00
2018-07-22T11:43:53.005Z,6.80
2018-07-22T11:44:53.191Z,7.00
2018-07-22T11:45:53.408Z,7.20
2018-07-22T11:46:53.617Z,7.20
2018-07-22T11:47:53.832Z,6.10
2018-07-22T11:48:54.041Z,8.00
2018-07-22T11:49:54.243Z,7.20
2018-07-22T11:50:54.457Z,7.00
2018-07-22T11:51:54.684Z,6.30
2018-07-22T11:52:54.887Z,7.20
2018-07-22T11:53:55.096Z,6.50
2018-07-22T11:54:55.312Z,6.50
2018-07-22T11:55:55.533Z,7.10
2018-07-22T11:56:55.748Z,6.70
2018-07-22T11:57:55.954Z,6.80
2018-07-22T11:58:56.175Z,6.70
2018-07-22T11:59:56.375Z,7.50
2018-07-22T12:00:56.592Z,6.60
2018-07-22T12:01:56.810Z,6.90
2018-07-22T12:02:57.035Z,6.50
2018-07-22T12:03:57.249Z,6.40
2018-07-22T12:04:57.474Z,6.30
2018-07-22T12:05:57.714Z,6.70
2018-07-22T12:06:57.920Z,6.70
2018-07-22T12:07:58.138Z,7.10
2018-07-22T12:08:58.351Z,6.90
2018-07-22T12:09:58.544Z,6.00
2018-07-22T12:10:58.764Z,6.60
2018-07-22T12:11:58.984Z,6.80
2018-07-22T12:12:59.203Z,7.00
2018-07-22T12:13:59.427Z,6.70
2018-07-22T12:14:59.618Z,6.90
2018-07-22T12:15:59.834Z,6.70
2018-07-22T12:17:00.049Z,6.50
2018-07-22T12:18:00.265Z,6.80
2018-07-22T12:19:00.464Z,6.80
2018-07-22T12:20:00.671Z,6.20
2018-07-22T12:21:00.891Z,6.40
2018-07-22T12:22:01.088Z,6.20
2018-07-22T12:23:01.307Z,5.90
2018-07-22T12:24:01.521Z,6.10
2018-07-22T12:25:01.742Z,5.70
2018-07-22T12:26:01.964Z,6.30
2018-07-22T12:27:02.157Z,6.40
2018-07-22T12:28:02.369Z,6.20
2018-07-22T12:29:02.585Z,6.70
2018-07-22T12:30:02.753Z,6.10
2018-07-22T12:31:02.944Z,5.70
2018-07-22T12:32:03.178Z,5.90
2018-07-22T12:33:03.409Z,5.80
2018-07-22T12:34:03.614Z,5.90
2018-07-22T12:35:03.824Z,5.80
2018-07-22T12:36:04.043Z,6.00
2018-07-22T12:37:04.257Z,5.90
2018-07-22T12:38:04.460Z,6.10
2018-07-22T12:39:04.655Z,6.50
2018-07-22T12:40:04.881Z,6.10
2018-07-22T12:41:05.168Z,6.00
2018-07-22T12:42:05.259Z,5.90
2018-07-22T12:43:05.487Z,6.30
2018-07-22T12:44:05.705Z,6.70
2018-07-22T12:45:05.911Z,6.00
2018-07-22T12:46:06.113Z,6.40
2018-07-22T12:47:06.337Z,5.60
2018-07-22T12:48:06.530Z,6.20
2018-07-22T12:49:06.726Z,6.00
2018-07-22T12:50:06.925Z,6.90
2018-07-22T12:51:07.126Z,6.80
2018-07-22T12:52:07.324Z,6.60
2018-07-22T12:53:07.537Z,6.70
2018-07-22T12:54:07.746Z,6.30
2018-07-22T12:55:07.942Z,5.50
2018-07-22T12:56:08.150Z,5.50
2018-07-22T12:57:08.352Z,5.90
2018-07-22T12:58:08.571Z,6.30
2018-07-22T12:59:08.840Z,5.70
2018-07-22T13:00:08.999Z,5.80
2018-07-22T13:01:09.195Z,5.60
2018-07-22T13:02:09.388Z,5.80
2018-07-22T13:03:09.597Z,6.10
2018-07-22T13:04:09.816Z,6.20
2018-07-22T13:05:10.036Z,6.10
2018-07-22T13:06:10.259Z,5.40
2018-07-22T13:07:10.475Z,6.00
2018-07-22T13:08:10.687Z,6.10
2018-07-22T13:09:10.888Z,5.50
2018-07-22T13:10:11.103Z,5.70
2018-07-22T13:11:11.299Z,6.00
2018-07-22T13:12:11.517Z,6.40
2018-07-22T13:13:11.797Z,6.10
2018-07-22T13:14:11.934Z,6.20
2018-07-22T13:15:12.155Z,5.90
2018-07-22T13:16:12.378Z,6.20
2018-07-22T13:17:12.594Z,6.50
2018-07-22T13:18:12.792Z,6.30
2018-07-22T13:19:13.015Z,6.10
2018-07-22T13:20:13.214Z,6.20
2018-07-22T13:21:13.434Z,6.20
2018-07-22T13:22:13.628Z,6.30
2018-07-22T13:23:13.841Z,5.70
2018-07-22T13:24:14.053Z,6.30
2018-07-22T13:25:14.269Z,6.10
2018-07-22T13:26:14.484Z,6.10
2018-07-22T13:27:14.690Z,5.80
2018-07-22T13:28:14.927Z,6.00
2018-07-22T13:29:15.151Z,6.20
2018-07-22T13:30:15.375Z,6.10
2018-07-22T13:31:15.584Z,6.40
2018-07-22T13:32:15.787Z,6.30
2018-07-22T13:33:15.980Z,6.00
2018-07-22T13:34:16.198Z,6.80
2018-07-22T13:35:16.422Z,6.60